createdAt,value
2022-07-29T00:07:56.646Z,2.1
2022-07-29T00:12:00.487Z,1.5
2022-07-29T00:14:02.392Z,1.1
2022-07-29T00:18:06.283Z,1.3
2022-07-29T00:20:11.324Z,1.3
2022-07-29T00:22:13.273Z,1.8
2022-07-29T00:24:15.639Z,1.2
2022-07-29T00:29:34.201Z,1.5
2022-07-29T00:31:23.595Z,1.9
2022-07-29T00:35:30.534Z,1.8
2022-07-29T00:39:34.388Z,1.3
2022-07-29T00:41:36.333Z,1.5
2022-07-29T00:43:38.289Z,1.4
2022-07-29T00:45:40.212Z,1.3
2022-07-29T00:47:45.279Z,2.6
2022-07-29T00:49:47.204Z,2
2022-07-29T00:51:49.156Z,1.5
2022-07-29T00:53:51.141Z,1.5
2022-07-29T00:55:53.022Z,0.9
2022-07-29T00:57:54.957Z,1.8
2022-07-29T00:59:56.894Z,1.5
2022-07-29T01:02:02.021Z,1.6
2022-07-29T01:04:03.926Z,1.4
2022-07-29T01:06:05.859Z,1.9
2022-07-29T01:08:07.828Z,1.4
2022-07-29T01:10:09.722Z,1.3
2022-07-29T01:12:11.678Z,1.8
2022-07-29T01:14:13.968Z,1.3
2022-07-29T01:16:18.780Z,1.8
2022-07-29T01:18:21.987Z,1.8
2022-07-29T01:20:22.556Z,1.4
2022-07-29T01:21:25.105Z,1.4
2022-07-29T01:25:28.952Z,2.1
2022-07-29T01:27:30.870Z,1.7
2022-07-29T01:29:38.825Z,1.4
2022-07-29T01:31:40.264Z,1.6
2022-07-29T01:35:43.327Z,1.4
2022-07-29T01:37:45.194Z,1.9
2022-07-29T01:39:47.132Z,1.7
2022-07-29T01:41:49.064Z,1.3
2022-07-29T01:43:54.150Z,2
2022-07-29T01:45:56.060Z,2.1
2022-07-29T01:47:57.986Z,1.7
2022-07-29T01:49:59.909Z,1.7
2022-07-29T01:52:01.847Z,2.2
2022-07-29T01:54:03.786Z,1.9
2022-07-29T01:56:05.759Z,2
2022-07-29T01:58:10.826Z,1.4
2022-07-29T02:00:12.743Z,1.8
2022-07-29T02:02:14.759Z,1.9
2022-07-29T02:04:29.498Z,2.3
2022-07-29T02:06:18.559Z,2.1
2022-07-29T02:08:20.499Z,2.3
2022-07-29T02:10:26.103Z,1.6
2022-07-29T02:12:27.537Z,2
2022-07-29T02:14:29.451Z,2.2
2022-07-29T02:16:31.642Z,1.8
2022-07-29T02:18:54.249Z,2.8
2022-07-29T02:25:03.791Z,1.9
2022-07-29T02:27:05.165Z,2.1
2022-07-29T02:29:07.035Z,1.5
2022-07-29T02:31:09.029Z,1.7
2022-07-29T02:35:12.873Z,1.9
2022-07-29T02:37:14.780Z,2.1
2022-07-29T02:39:19.889Z,1.7
2022-07-29T02:41:21.805Z,2
2022-07-29T02:43:23.760Z,2.3
2022-07-29T02:45:25.718Z,2.1
2022-07-29T02:47:27.639Z,1.4
2022-07-29T02:49:29.548Z,1.5
2022-07-29T02:51:41.442Z,1.8
2022-07-29T02:53:36.595Z,1.8
2022-07-29T02:55:38.551Z,1.6
2022-07-29T02:57:54.699Z,2.3
2022-07-29T02:59:42.407Z,2.1
2022-07-29T03:01:44.451Z,2.3
2022-07-29T03:05:48.219Z,1.4
2022-07-29T03:07:53.402Z,1.9
2022-07-29T03:09:55.359Z,2.1
2022-07-29T03:11:57.303Z,1.8
2022-07-29T03:12:59.827Z,4.4
2022-07-29T03:15:01.770Z,2
2022-07-29T03:17:03.675Z,2.1
2022-07-29T03:19:05.633Z,1.7
2022-07-29T03:23:12.648Z,2.1
2022-07-29T03:25:14.630Z,1.7
2022-07-29T03:27:16.541Z,3.6
2022-07-29T03:29:18.546Z,1.7
2022-07-29T03:33:22.526Z,2.3
2022-07-29T03:35:27.648Z,2.4
2022-07-29T03:37:29.657Z,2.8
2022-07-29T03:39:31.589Z,2.3
2022-07-29T03:41:33.524Z,1.8
2022-07-29T03:43:35.464Z,1.7
2022-07-29T03:45:37.408Z,1.3
2022-07-29T03:47:39.351Z,2
2022-07-29T03:49:44.522Z,2.1
2022-07-29T03:51:46.485Z,1.9
2022-07-29T03:53:48.391Z,2
2022-07-29T03:57:52.261Z,1.6
2022-07-29T03:59:54.214Z,2.2
2022-07-29T04:06:03.266Z,1.4
2022-07-29T04:08:05.215Z,2.5
2022-07-29T04:09:09.909Z,1.9
2022-07-29T04:11:09.813Z,2.5
2022-07-29T04:13:11.734Z,2.4
2022-07-29T04:15:13.797Z,2.3
2022-07-29T04:17:18.854Z,2.3
2022-07-29T04:19:20.805Z,2.5
2022-07-29T04:21:22.755Z,2.4
2022-07-29T04:25:26.729Z,2.2
2022-07-29T04:27:28.649Z,2.8
2022-07-29T04:29:30.639Z,2.7
2022-07-29T04:31:35.939Z,2.7
2022-07-29T04:33:37.724Z,2.4
2022-07-29T04:35:45.771Z,2.7
2022-07-29T04:37:41.841Z,2.6
2022-07-29T04:39:43.875Z,2.9
2022-07-29T04:41:45.866Z,2.3
2022-07-29T04:43:47.876Z,2.4
2022-07-29T04:45:53.262Z,4.2
2022-07-29T04:47:55.132Z,3.1
2022-07-29T04:49:57.178Z,3.2
2022-07-29T04:51:59.229Z,2.9
2022-07-29T04:54:01.266Z,2.1
2022-07-29T04:56:03.323Z,3.2
2022-07-29T04:58:05.380Z,3
2022-07-29T05:00:10.593Z,2.8
2022-07-29T05:02:12.673Z,3.3
2022-07-29T05:04:14.918Z,2.3
2022-07-29T05:05:17.187Z,2.5
2022-07-29T05:07:19.119Z,3.7
2022-07-29T05:09:21.178Z,4.1
2022-07-29T05:11:26.087Z,2.8
2022-07-29T05:13:28.410Z,3.4
2022-07-29T05:15:30.499Z,3.4
2022-07-29T05:17:32.502Z,3.1
2022-07-29T05:19:34.591Z,3.3
2022-07-29T05:21:36.634Z,3.8
2022-07-29T05:23:38.626Z,3.1
2022-07-29T05:25:44.093Z,3.5
2022-07-29T05:27:45.987Z,3.2
2022-07-29T05:29:48.038Z,3
2022-07-29T05:31:50.102Z,3.5
2022-07-29T05:33:52.123Z,2.8
2022-07-29T05:35:58.530Z,2.8
2022-07-29T05:37:56.132Z,2.9
2022-07-29T05:39:59.192Z,3.3
2022-07-29T05:42:03.457Z,4.1
2022-07-29T05:44:05.479Z,3.9
2022-07-29T05:46:07.340Z,5.5
2022-07-29T05:48:09.339Z,3.7
2022-07-29T05:50:11.397Z,4
2022-07-29T05:52:13.426Z,3.6
2022-07-29T05:54:15.810Z,4.2
2022-07-29T05:58:22.693Z,2.8
2022-07-29T06:00:24.779Z,2.7
2022-07-29T06:09:12.239Z,3.4
2022-07-29T06:13:07.080Z,3.2
2022-07-29T06:15:09.018Z,3.5
2022-07-29T06:17:10.964Z,4.5
2022-07-29T06:19:12.999Z,3.7
2022-07-29T06:21:15.026Z,4.1
2022-07-29T06:23:20.140Z,4.4
2022-07-29T06:25:22.081Z,3.4
2022-07-29T06:27:24.039Z,3.9
2022-07-29T06:29:26.056Z,4.4
2022-07-29T06:31:28.090Z,3.8
2022-07-29T06:35:38.891Z,3.8
2022-07-29T06:57:01.268Z,2.9
2022-07-29T06:59:03.344Z,3.7
2022-07-29T07:05:12.250Z,3.6
2022-07-29T07:07:14.200Z,3.9
2022-07-29T07:09:16.220Z,3.6
2022-07-29T07:11:18.148Z,3.2
2022-07-29T07:13:20.115Z,3.4
2022-07-29T07:15:22.047Z,2.9
2022-07-29T07:17:23.999Z,3.5
2022-07-29T07:19:29.062Z,4
2022-07-29T07:21:31.371Z,3.1
2022-07-29T07:23:33.045Z,2.9
2022-07-29T07:25:34.989Z,3.2
2022-07-29T07:27:38.475Z,3.6
2022-07-29T07:29:40.479Z,3.1
2022-07-29T07:31:42.462Z,3.1
2022-07-29T07:33:47.656Z,4
2022-07-29T07:35:49.723Z,3.3
2022-07-29T07:37:51.734Z,3
2022-07-29T07:39:53.669Z,3.8
2022-07-29T07:41:55.708Z,2.7
2022-07-29T07:43:57.645Z,3.3
2022-07-29T07:48:04.752Z,3.5
2022-07-29T07:52:08.617Z,3.1
2022-07-29T07:53:11.157Z,2.8
2022-07-29T07:55:13.124Z,3.5
2022-07-29T07:57:15.034Z,3.2
2022-07-29T07:59:16.948Z,3.6
2022-07-29T08:01:22.115Z,3.1
2022-07-29T08:03:23.968Z,3.8
2022-07-29T08:05:26.081Z,3.2
2022-07-29T08:07:27.818Z,3.5
2022-07-29T08:09:30.631Z,3.2
2022-07-29T08:13:33.584Z,3.5
2022-07-29T08:15:38.635Z,3.5
2022-07-29T08:17:40.587Z,3.4
2022-07-29T08:19:42.483Z,3.2
2022-07-29T08:21:44.439Z,4.1
2022-07-29T08:23:50.587Z,3.5
2022-07-29T08:27:50.249Z,3.4
2022-07-29T08:29:55.269Z,2.9
2022-07-29T08:31:57.276Z,2.7
2022-07-29T08:33:59.138Z,3.4
2022-07-29T08:38:02.945Z,2.8
2022-07-29T08:40:04.887Z,3
2022-07-29T08:42:06.790Z,3.1
2022-07-29T08:44:11.869Z,4.2
2022-07-29T08:46:13.879Z,4.1
2022-07-29T08:48:15.707Z,4
2022-07-29T08:49:18.358Z,4.6
2022-07-29T08:51:20.145Z,3.6
2022-07-29T08:53:22.065Z,3.4
2022-07-29T09:01:35.288Z,3.3
2022-07-29T09:03:34.872Z,3.1
2022-07-29T09:05:40.642Z,3.4
2022-07-29T09:07:38.633Z,3.2
2022-07-29T09:09:40.537Z,3.3
2022-07-29T09:11:45.565Z,4
2022-07-29T09:13:47.486Z,3.6
2022-07-29T09:15:49.410Z,3.8
2022-07-29T09:19:53.234Z,3
2022-07-29T09:21:55.150Z,3.9
2022-07-29T09:23:57.064Z,3.3
2022-07-29T09:26:02.146Z,3.6
2022-07-29T09:28:04.021Z,3.6
2022-07-29T09:32:07.874Z,4.3
2022-07-29T09:34:09.755Z,4.7
2022-07-29T09:36:11.678Z,5
2022-07-29T09:38:13.592Z,4
2022-07-29T09:40:18.662Z,3.7
2022-07-29T09:42:20.530Z,3.9
2022-07-29T09:44:22.430Z,3.4
2022-07-29T09:46:51.045Z,4
2022-07-29T09:48:52.970Z,4.2
2022-07-29T09:50:54.785Z,3.5
2022-07-29T09:52:59.835Z,4.3
2022-07-29T09:55:01.745Z,3.4
2022-07-29T09:57:03.841Z,3.1
2022-07-29T09:59:05.531Z,3.4
2022-07-29T10:01:07.495Z,3.9
2022-07-29T10:03:09.350Z,3.6
2022-07-29T10:05:11.206Z,3.8
2022-07-29T10:07:16.251Z,4.2
2022-07-29T10:09:18.157Z,3.6
2022-07-29T10:11:20.059Z,4
2022-07-29T10:15:23.838Z,4.7
2022-07-29T10:17:25.702Z,3.5
2022-07-29T10:19:27.592Z,4.4
2022-07-29T10:21:35.249Z,4.4
2022-07-29T10:25:36.393Z,3.2
2022-07-29T10:27:38.288Z,3.8
2022-07-29T10:29:40.168Z,3.5
2022-07-29T10:31:42.172Z,3.1
2022-07-29T10:35:48.972Z,3.6
2022-07-29T10:37:50.878Z,2.4
2022-07-29T10:39:52.755Z,4.2
2022-07-29T10:44:59.027Z,3.8
2022-07-29T10:47:00.997Z,3.9
2022-07-29T10:49:06.001Z,9.8
2022-07-29T10:51:07.795Z,4
2022-07-29T10:53:09.687Z,4.6
2022-07-29T10:55:11.550Z,4.3
2022-07-29T10:57:13.427Z,2.9
2022-07-29T11:03:22.233Z,4.2
2022-07-29T11:09:37.420Z,3.3
2022-07-29T11:11:30.012Z,3.6
2022-07-29T11:13:31.560Z,12.1
2022-07-29T11:15:33.418Z,4.4
2022-07-29T11:19:42.416Z,4.8
2022-07-29T11:21:53.686Z,3.9
2022-07-29T11:25:50.610Z,4.4
2022-07-29T11:27:48.096Z,9.9
2022-07-29T11:29:49.806Z,4.4
2022-07-29T11:31:54.925Z,3.9
2022-07-29T11:33:56.963Z,4
2022-07-29T11:36:00.884Z,4.2
2022-07-29T11:37:00.888Z,4
2022-07-29T11:39:02.777Z,4.7
2022-07-29T11:49:15.474Z,3.9
2022-07-29T11:53:18.959Z,4.2
2022-07-29T11:55:20.819Z,3.8
2022-07-29T11:57:22.619Z,4.3
2022-07-29T11:59:32.917Z,3.4
2022-07-29T12:01:29.457Z,5.4
2022-07-29T12:03:33.300Z,3.3
2022-07-29T12:05:36.961Z,2.9
2022-07-29T12:07:37.474Z,3.5
2022-07-29T12:11:38.743Z,2.4
2022-07-29T12:13:43.802Z,3.5
2022-07-29T12:17:47.455Z,4
2022-07-29T12:21:56.585Z,2.4
2022-07-29T12:27:59.895Z,1.5
2022-07-29T12:30:01.729Z,2.6
2022-07-29T12:33:06.083Z,2.3
2022-07-29T12:35:07.938Z,2.1
2022-07-29T12:37:09.786Z,2.3
2022-07-29T12:39:11.615Z,2
2022-07-29T12:41:16.666Z,4
2022-07-29T12:43:18.499Z,2.7
2022-07-29T12:45:20.357Z,2.7
2022-07-29T12:47:22.201Z,3
2022-07-29T12:49:24.198Z,2.9
2022-07-29T12:51:25.876Z,2.7
2022-07-29T12:53:27.696Z,2.4
2022-07-29T12:55:32.708Z,2
2022-07-29T12:57:34.657Z,2.1
2022-07-29T12:59:36.355Z,2.2
2022-07-29T13:01:38.192Z,4
2022-07-29T13:03:40.011Z,2.8
2022-07-29T13:05:45.677Z,2.9
2022-07-29T13:07:55.070Z,2
2022-07-29T13:09:48.660Z,2.9
2022-07-29T13:11:50.482Z,3.1
2022-07-29T13:14:05.970Z,3
2022-07-29T13:15:54.117Z,2.5
2022-07-29T13:17:55.933Z,2.2
2022-07-29T13:19:59.318Z,2.2
2022-07-29T13:22:01.376Z,2.7
2022-07-29T13:24:06.054Z,2.5
2022-07-29T13:26:07.883Z,3.1
2022-07-29T13:28:09.721Z,2.9
2022-07-29T13:30:38.259Z,3.9
2022-07-29T13:38:48.442Z,3
2022-07-29T13:40:50.962Z,2.8
2022-07-29T13:44:54.572Z,2.6
2022-07-29T13:46:56.411Z,2.3
2022-07-29T13:48:58.317Z,1.4
2022-07-29T13:53:04.941Z,2.8
2022-07-29T13:55:06.758Z,1.8
2022-07-29T13:57:08.547Z,6
2022-07-29T13:59:10.343Z,2.5
2022-07-29T14:01:12.193Z,1.8
2022-07-29T14:03:13.909Z,2.3
2022-07-29T14:05:18.872Z,2.2
2022-07-29T14:07:20.656Z,2.2
2022-07-29T14:09:22.462Z,1.6
2022-07-29T14:11:24.244Z,1.9
2022-07-29T14:13:26.471Z,1.8
2022-07-29T14:15:27.819Z,1.9
2022-07-29T14:17:29.684Z,1.8
2022-07-29T14:19:34.547Z,3.8
2022-07-29T14:21:36.326Z,2.5
2022-07-29T14:24:40.580Z,2.4
2022-07-29T14:26:42.356Z,2.3
2022-07-29T14:28:44.142Z,2.1
2022-07-29T14:30:45.903Z,1.5
2022-07-29T14:32:50.868Z,2.4
2022-07-29T14:34:52.642Z,2
2022-07-29T14:36:54.431Z,2.1
2022-07-29T14:38:56.195Z,1.9
2022-07-29T14:40:57.972Z,1.7
2022-07-29T14:42:59.743Z,1.3
2022-07-29T14:45:01.493Z,1.6
2022-07-29T14:47:07.972Z,1.4
2022-07-29T14:49:08.237Z,2.5
2022-07-29T14:51:09.980Z,1.5
2022-07-29T14:53:11.723Z,2.2
2022-07-29T14:55:16.545Z,1.1
2022-07-29T14:59:16.875Z,2.7
2022-07-29T15:01:21.868Z,2
2022-07-29T15:03:24.425Z,2.1
2022-07-29T15:05:25.201Z,1.5
2022-07-29T15:07:26.996Z,2
2022-07-29T15:09:28.584Z,1.4
2022-07-29T15:11:30.288Z,1.3
2022-07-29T15:13:31.924Z,1.4
2022-07-29T15:15:36.796Z,1.4
2022-07-29T15:17:38.453Z,1.2
2022-07-29T15:19:44.987Z,1.2
2022-07-29T15:20:42.549Z,1.3
2022-07-29T15:22:44.187Z,1.1
2022-07-29T15:24:45.859Z,1.9
2022-07-29T15:26:47.494Z,1.6
2022-07-29T15:28:52.322Z,3.2
2022-07-29T15:30:53.956Z,1.7
2022-07-29T15:34:57.216Z,1.1
2022-07-29T15:39:00.504Z,1.2
2022-07-29T15:41:02.086Z,1
2022-07-29T15:43:07.017Z,1.3
2022-07-29T15:45:08.538Z,1.4
2022-07-29T15:47:10.152Z,2
2022-07-29T15:49:11.824Z,1.4
2022-07-29T15:51:13.387Z,1.4
2022-07-29T15:53:15.029Z,1.5
2022-07-29T15:57:21.462Z,1.3
2022-07-29T16:03:26.306Z,1.6
2022-07-29T16:05:27.927Z,1.9
2022-07-29T16:07:31.511Z,1.8
2022-07-29T16:09:31.193Z,7
2022-07-29T16:11:36.016Z,1.6
2022-07-29T16:13:37.663Z,2.3
2022-07-29T16:15:39.299Z,1.5
2022-07-29T16:16:41.734Z,1.6
2022-07-29T16:18:43.321Z,1.8
2022-07-29T16:20:44.976Z,1.6
2022-07-29T16:22:46.615Z,1.8
2022-07-29T16:24:51.457Z,1.6
2022-07-29T16:26:53.099Z,2
2022-07-29T16:28:54.755Z,1.5
2022-07-29T16:30:56.401Z,1.5
2022-07-29T16:32:58.047Z,4.8
2022-07-29T16:34:59.725Z,2.1
2022-07-29T16:37:02.028Z,3
2022-07-29T16:39:06.254Z,3
2022-07-29T16:41:07.947Z,3.9
2022-07-29T16:43:09.648Z,2.6
2022-07-29T16:45:11.310Z,3.4
2022-07-29T16:47:13.005Z,3.3
2022-07-29T16:49:19.041Z,4.5
2022-07-29T16:51:16.405Z,2.3
2022-07-29T16:53:21.284Z,4.5
2022-07-29T16:55:22.988Z,3.1
2022-07-29T17:01:28.268Z,6.6
2022-07-29T17:03:29.895Z,4.8
2022-07-29T17:09:38.297Z,1.9
2022-07-29T17:11:52.834Z,1.9
2022-07-29T17:14:09.036Z,1.9
2022-07-29T17:16:10.181Z,2.5
2022-07-29T17:18:12.668Z,3
2022-07-29T17:20:17.651Z,4.2
2022-07-29T17:22:19.435Z,2.5
2022-07-29T17:24:20.353Z,4
2022-07-29T17:26:22.088Z,8.3
2022-07-29T17:28:23.873Z,6.3
2022-07-29T17:30:25.621Z,6.3
2022-07-29T17:32:27.391Z,2.7
2022-07-29T17:34:32.341Z,2.4
2022-07-29T17:36:34.087Z,2.8
2022-07-29T17:40:37.624Z,6.3
2022-07-29T17:42:39.366Z,15.2
2022-07-29T17:44:41.152Z,6.3
2022-07-29T17:46:43.017Z,2.3
2022-07-29T17:48:47.926Z,2.5
2022-07-29T17:50:49.651Z,7.4
2022-07-29T17:52:51.410Z,3.6
2022-07-29T17:54:53.190Z,2.5
2022-07-29T17:56:55.495Z,4.9
2022-07-29T17:58:56.751Z,6.6
2022-07-29T18:00:58.571Z,3.1
2022-07-29T18:03:03.507Z,4
2022-07-29T18:05:05.245Z,5.7
2022-07-29T18:07:07.025Z,6.3
2022-07-29T18:08:09.507Z,5
2022-07-29T18:12:13.049Z,3.7
2022-07-29T18:16:19.975Z,3.9
2022-07-29T18:18:21.578Z,3.7
2022-07-29T18:20:23.352Z,4.4
2022-07-29T18:22:25.131Z,2.2
2022-07-29T18:24:26.921Z,7.7
2022-07-29T18:26:30.476Z,3
2022-07-29T18:28:30.484Z,3.5
2022-07-29T18:30:35.447Z,2.9
2022-07-29T18:32:37.229Z,2.7
2022-07-29T18:34:39.026Z,2
2022-07-29T18:36:40.793Z,3
2022-07-29T18:38:42.594Z,2.2
2022-07-29T18:40:44.369Z,1.9
2022-07-29T18:42:46.154Z,2.1
2022-07-29T18:44:51.162Z,12.1
2022-07-29T18:52:58.513Z,2.6
2022-07-29T18:55:00.141Z,2
2022-07-29T18:57:02.067Z,2.7
2022-07-29T18:59:06.885Z,2.9
2022-07-29T19:04:13.004Z,1.4
2022-07-29T19:10:19.959Z,2.1
2022-07-29T19:18:30.314Z,1.4
2022-07-29T19:22:33.923Z,2.1
2022-07-29T19:24:35.748Z,2
2022-07-29T19:26:40.732Z,6.7
2022-07-29T19:28:42.547Z,3.6
2022-07-29T19:30:44.357Z,3.1
2022-07-29T19:32:46.181Z,3.2
2022-07-29T19:34:49.827Z,2.5
2022-07-29T19:36:49.841Z,3.2
2022-07-29T19:38:51.669Z,17.2
2022-07-29T19:40:56.614Z,9.8
2022-07-29T19:42:58.473Z,3.3
2022-07-29T19:45:00.282Z,3.4
2022-07-29T19:47:02.157Z,2.2
2022-07-29T19:51:05.743Z,2.6
2022-07-29T19:53:07.590Z,2.2
2022-07-29T19:59:16.246Z,2.3
2022-07-29T20:00:21.045Z,2.6
2022-07-29T20:02:20.710Z,2.4
2022-07-29T20:04:22.432Z,2.4
2022-07-29T20:06:24.252Z,2.5
2022-07-29T20:08:29.270Z,2.2
2022-07-29T20:10:31.082Z,2.4
2022-07-29T20:12:32.903Z,2.3
2022-07-29T20:14:34.760Z,2.8
2022-07-29T20:16:36.590Z,3.6
2022-07-29T20:18:38.430Z,14.8
2022-07-29T20:20:40.253Z,20.5
2022-07-29T20:24:47.115Z,4
2022-07-29T20:26:48.930Z,2.5
2022-07-29T20:30:52.681Z,2.4
2022-07-29T20:32:54.449Z,3.1
2022-07-29T20:34:56.295Z,2.1
2022-07-29T20:37:01.759Z,2.7
2022-07-29T20:39:03.125Z,3.4
2022-07-29T20:41:04.991Z,3.1
2022-07-29T20:43:06.836Z,3
2022-07-29T20:45:08.860Z,3.3
2022-07-29T20:47:10.534Z,3.1
2022-07-29T20:51:17.368Z,4.3
2022-07-29T20:53:19.236Z,3.9
2022-07-29T20:55:21.096Z,3.1
2022-07-29T20:59:51.459Z,4.2
2022-07-29T21:03:58.322Z,3.3
2022-07-29T21:14:07.619Z,4.1
2022-07-29T21:18:14.505Z,5.4
2022-07-29T21:20:16.363Z,4.4
2022-07-29T21:22:18.222Z,4.4
2022-07-29T21:24:20.097Z,5.1
2022-07-29T21:26:21.968Z,4.1
2022-07-29T21:28:23.824Z,4.4
2022-07-29T21:30:25.707Z,4.1
2022-07-29T21:32:30.763Z,4.5
2022-07-29T21:34:32.608Z,3.6
2022-07-29T21:36:48.736Z,3.1
2022-07-29T21:38:36.337Z,3.9
2022-07-29T21:40:38.209Z,4.2
2022-07-29T21:42:40.085Z,4.4
2022-07-29T21:44:41.955Z,3.9
2022-07-29T21:46:46.982Z,3.7
2022-07-29T21:48:48.873Z,3.8
2022-07-29T22:00:03.942Z,4.4
2022-07-29T22:02:05.801Z,5.1
2022-07-29T22:04:07.717Z,4.4
2022-07-29T22:06:11.211Z,4.5
2022-07-29T22:08:11.418Z,5.2
2022-07-29T22:10:13.285Z,5.2
2022-07-29T22:12:15.162Z,4.1
2022-07-29T22:14:20.209Z,5.9
2022-07-29T22:18:23.968Z,5.5
2022-07-29T22:20:25.858Z,4.9
2022-07-29T22:22:27.750Z,6.2
2022-07-29T22:24:29.655Z,5.8
2022-07-29T22:26:31.536Z,6
2022-07-29T22:28:36.597Z,6.4
2022-07-29T22:30:38.561Z,5
2022-07-29T22:32:40.333Z,6
2022-07-29T22:34:42.219Z,6.5
2022-07-29T22:36:44.112Z,7.5
2022-07-29T22:38:50.253Z,5.9
2022-07-29T22:40:48.616Z,7.2
2022-07-29T22:42:52.959Z,6.2
2022-07-29T22:44:54.848Z,5.3
2022-07-29T22:46:57.108Z,5.9
2022-07-29T22:47:59.495Z,5.9
2022-07-29T22:50:01.140Z,5.8
2022-07-29T22:54:04.931Z,5.3
2022-07-29T22:56:09.950Z,5.8
2022-07-29T22:58:11.865Z,5.8
2022-07-29T23:02:15.644Z,7
2022-07-29T23:04:17.551Z,6.7
2022-07-29T23:06:19.421Z,7.3
2022-07-29T23:08:21.380Z,7.5
2022-07-29T23:10:26.433Z,7.3
2022-07-29T23:14:30.195Z,7.4
2022-07-29T23:16:32.158Z,7.5
2022-07-29T23:18:34.010Z,6.3
2022-07-29T23:20:35.865Z,8.2
2022-07-29T23:22:37.801Z,8.6
2022-07-29T23:24:42.829Z,9.6
2022-07-29T23:26:44.722Z,9.3
2022-07-29T23:28:46.626Z,9
2022-07-29T23:30:48.579Z,8.4
2022-07-29T23:32:50.439Z,8.3
2022-07-29T23:34:52.323Z,7.7
2022-07-29T23:36:54.218Z,8.3
2022-07-29T23:38:59.281Z,9.7
2022-07-29T23:41:01.157Z,9.4
2022-07-29T23:43:03.073Z,6.3
2022-07-29T23:44:05.601Z,7.9
2022-07-29T23:46:07.560Z,8.5
2022-07-29T23:48:09.428Z,7.6
2022-07-29T23:50:11.327Z,7.3
2022-07-29T23:52:16.353Z,8.6
2022-07-29T23:54:18.280Z,8.1
2022-07-29T23:56:20.191Z,8.9
2022-07-29T23:58:22.098Z,9.2
